OOCL Nagoya — VRFX8 — position and weather

sailwx.info

Track history (hours):
 
Tides and Currents Weather Stations Pressure Air Temp Water Temp Dewpoint Dewpoint Depression Visibility Wind Speed Wind Dir Waves Ship Positions

OOCL Nagoya

Last reported at 2014-Nov-23 19:32 UTC. Time now 2014-Nov-24 13:58 UTC.
Position N 01°14' E 104°03'.

Length 261 m; draft 11.4 m.

Type: Cargo ship. MMSI: 477627900.

Date/timePositionNaut miles runAvg speedWind from/ knotsBaromVisibWave heightAir tempDewpointWater temp
2014-Nov-23 19:32N 01°14' E 104°03'1111.3
2014-Nov-23 18:33N 01°15' E 103°51'1 1.3
2014-Nov-23 17:33N 01°16' E 103°51'0 0.0
2014-Nov-23 16:33N 01°16' E 103°51'0 0.0
2014-Nov-23 15:33N 01°16' E 103°51'0 0.0
2014-Nov-23 14:33N 01°16' E 103°51'0 0.0
2014-Nov-23 13:27N 01°16' E 103°51'0 0.0
2014-Nov-23 12:27N 01°16' E 103°51'0 0.0
2014-Nov-23 11:33N 01°16' E 103°51'0 0.0
2014-Nov-23 10:24N 01°16' E 103°51'0 0.0
2014-Nov-23 09:33N 01°16' E 103°51'0 0.0
2014-Nov-23 08:30N 01°16' E 103°51'0 0.0
2014-Nov-23 07:27N 01°16' E 103°51'0 0.0
2014-Nov-23 06:33N 01°16' E 103°51'0 0.0
2014-Nov-23 05:33N 01°16' E 103°51'0 0.0
2014-Nov-23 04:21N 01°16' E 103°51'0 0.0
2014-Nov-23 03:33N 01°16' E 103°51'0 0.0
2014-Nov-23 02:33N 01°16' E 103°51'0 0.0
2014-Nov-23 01:30N 01°16' E 103°51'0 0.0
2014-Nov-23 00:33N 01°16' E 103°51'2 1.7
2014-Nov-22 23:33N 01°15' E 103°52'2 2.0
2014-Nov-22 22:33N 01°14' E 103°54'9 8.6
2014-Nov-22 21:30N 01°16' E 104°02'23510.9
2014-Nov-22 00:00N 04°36' E 106°06'   070 / 81009.010.8 27.026.0
2014-Nov-19 00:00N 20°48' E 113°42'9312.6 060 / 251009.0 5.4 23.019.0
2014-Nov-18 16:34N 22°19' E 114°05'1111.4
2014-Nov-18 15:33N 22°23' E 113°54'5 4.5
2014-Nov-18 14:33N 22°27' E 113°54'0 0.0
2014-Nov-18 13:33N 22°27' E 113°54'0 0.0
2014-Nov-18 12:09N 22°27' E 113°54'0 0.0
2014-Nov-18 11:27N 22°27' E 113°54'0 0.0
2014-Nov-18 09:33N 22°27' E 113°54'0 0.0
2014-Nov-18 08:27N 22°27' E 113°54'0 0.0
2014-Nov-18 07:33N 22°27' E 113°54'0 0.0
2014-Nov-18 06:33N 22°27' E 113°54'0 0.0
2014-Nov-18 04:33N 22°27' E 113°54'0 0.0
2014-Nov-18 03:33N 22°27' E 113°54'0 0.2
2014-Nov-18 02:33N 22°27' E 113°54'8 7.7
2014-Nov-18 01:29N 22°21' E 113°59'1111.4
2014-Nov-18 00:33N 22°14' E 114°08'28111.5
2014-Nov-17 00:00N 22°30' E 119°12'25 9.4 020 / 181008.0 5.4 24.021.0
2014-Nov-16 21:20N 22°31' E 119°39'810.3
2014-Nov-16 20:33N 22°32' E 119°48'1010.4
2014-Nov-16 19:33N 22°32' E 119°59'1110.8
2014-Nov-16 18:33N 22°33' E 120°11'8 8.2
2014-Nov-16 17:34N 22°33' E 120°20'1 1.4
2014-Nov-16 16:34N 22°34' E 120°19'0 0.0
2014-Nov-16 15:32N 22°34' E 120°19'0 0.0
2014-Nov-16 14:32N 22°34' E 120°19'0 0.0
2014-Nov-16 13:26N 22°34' E 120°19'0 0.0
2014-Nov-16 12:32N 22°34' E 120°19'0 0.0
2014-Nov-16 11:32N 22°34' E 120°19'0 0.0
2014-Nov-16 10:32N 22°34' E 120°19'0 0.0
2014-Nov-16 09:32N 22°34' E 120°19'0 0.5
2014-Nov-16 08:33N 22°34' E 120°19'8 7.7
2014-Nov-16 07:34N 22°28' E 120°13'1616.0
2014-Nov-16 06:33N 22°13' E 120°17'  
Track history (hours):
 
Tides and Currents Weather Stations Pressure Air Temp Water Temp Dewpoint Dewpoint Depression Visibility Wind Speed Wind Dir Waves Ship Positions

OOCL Nagoya

Last reported at 2014-Nov-23 19:32 UTC. Time now 2014-Nov-24 13:58 UTC.
Position N 01°14' E 104°03'.

Length 261 m; draft 11.4 m.

Type: Cargo ship. MMSI: 477627900.

Date/timePositionNaut miles runAvg speedWind from/ knotsBaromVisibWave heightAir tempDewpointWater temp
2014-Nov-23 19:32N 01°14' E 104°03'1111.3
2014-Nov-23 18:33N 01°15' E 103°51'1 1.3
2014-Nov-23 17:33N 01°16' E 103°51'0 0.0
2014-Nov-23 16:33N 01°16' E 103°51'0 0.0
2014-Nov-23 15:33N 01°16' E 103°51'0 0.0
2014-Nov-23 14:33N 01°16' E 103°51'0 0.0
2014-Nov-23 13:27N 01°16' E 103°51'0 0.0
2014-Nov-23 12:27N 01°16' E 103°51'0 0.0
2014-Nov-23 11:33N 01°16' E 103°51'0 0.0
2014-Nov-23 10:24N 01°16' E 103°51'0 0.0
2014-Nov-23 09:33N 01°16' E 103°51'0 0.0
2014-Nov-23 08:30N 01°16' E 103°51'0 0.0
2014-Nov-23 07:27N 01°16' E 103°51'0 0.0
2014-Nov-23 06:33N 01°16' E 103°51'0 0.0
2014-Nov-23 05:33N 01°16' E 103°51'0 0.0
2014-Nov-23 04:21N 01°16' E 103°51'0 0.0
2014-Nov-23 03:33N 01°16' E 103°51'0 0.0
2014-Nov-23 02:33N 01°16' E 103°51'0 0.0
2014-Nov-23 01:30N 01°16' E 103°51'0 0.0
2014-Nov-23 00:33N 01°16' E 103°51'2 1.7
2014-Nov-22 23:33N 01°15' E 103°52'2 2.0
2014-Nov-22 22:33N 01°14' E 103°54'9 8.6
2014-Nov-22 21:30N 01°16' E 104°02'23510.9
2014-Nov-22 00:00N 04°36' E 106°06'   070 / 81009.010.8 27.026.0
2014-Nov-19 00:00N 20°48' E 113°42'9312.6 060 / 251009.0 5.4 23.019.0
2014-Nov-18 16:34N 22°19' E 114°05'1111.4
2014-Nov-18 15:33N 22°23' E 113°54'5 4.5
2014-Nov-18 14:33N 22°27' E 113°54'0 0.0
2014-Nov-18 13:33N 22°27' E 113°54'0 0.0
2014-Nov-18 12:09N 22°27' E 113°54'0 0.0
2014-Nov-18 11:27N 22°27' E 113°54'0 0.0
2014-Nov-18 09:33N 22°27' E 113°54'0 0.0
2014-Nov-18 08:27N 22°27' E 113°54'0 0.0
2014-Nov-18 07:33N 22°27' E 113°54'0 0.0
2014-Nov-18 06:33N 22°27' E 113°54'0 0.0
2014-Nov-18 04:33N 22°27' E 113°54'0 0.0
2014-Nov-18 03:33N 22°27' E 113°54'0 0.2
2014-Nov-18 02:33N 22°27' E 113°54'8 7.7
2014-Nov-18 01:29N 22°21' E 113°59'1111.4
2014-Nov-18 00:33N 22°14' E 114°08'28111.5
2014-Nov-17 00:00N 22°30' E 119°12'25 9.4 020 / 181008.0 5.4 24.021.0
2014-Nov-16 21:20N 22°31' E 119°39'810.3
2014-Nov-16 20:33N 22°32' E 119°48'1010.4
2014-Nov-16 19:33N 22°32' E 119°59'1110.8
2014-Nov-16 18:33N 22°33' E 120°11'8 8.2
2014-Nov-16 17:34N 22°33' E 120°20'1 1.4
2014-Nov-16 16:34N 22°34' E 120°19'0 0.0
2014-Nov-16 15:32N 22°34' E 120°19'0 0.0
2014-Nov-16 14:32N 22°34' E 120°19'0 0.0
2014-Nov-16 13:26N 22°34' E 120°19'0 0.0
2014-Nov-16 12:32N 22°34' E 120°19'0 0.0
2014-Nov-16 11:32N 22°34' E 120°19'0 0.0
2014-Nov-16 10:32N 22°34' E 120°19'0 0.0
2014-Nov-16 09:32N 22°34' E 120°19'0 0.5
2014-Nov-16 08:33N 22°34' E 120°19'8 7.7
2014-Nov-16 07:34N 22°28' E 120°13'1616.0
2014-Nov-16 06:33N 22°13' E 120°17'  

Dump ship's entire track history